createdAt,value
2023-05-14T00:00:38.629Z,97560.00
2023-05-14T00:03:06.860Z,97547.00
2023-05-14T00:05:36.563Z,97536.00
2023-05-14T00:08:04.855Z,97544.00
2023-05-14T00:10:33.125Z,97535.00
2023-05-14T00:13:01.922Z,97525.00
2023-05-14T00:15:31.797Z,97532.00
2023-05-14T00:18:02.190Z,97528.00
2023-05-14T00:20:31.660Z,97523.00
2023-05-14T00:23:01.955Z,97536.00
2023-05-14T00:25:30.739Z,97531.00
2023-05-14T00:27:58.882Z,97526.00
2023-05-14T00:30:27.146Z,97524.00
2023-05-14T00:32:55.319Z,97528.00
2023-05-14T00:35:23.847Z,97526.00
2023-05-14T00:37:52.247Z,97521.00
2023-05-14T00:40:26.690Z,97518.00
2023-05-14T00:42:54.911Z,97525.00
2023-05-14T00:45:23.444Z,97520.00
2023-05-14T00:47:53.412Z,97522.00
2023-05-14T00:50:22.319Z,97514.00
2023-05-14T00:52:51.083Z,97501.00
2023-05-14T00:55:22.719Z,97516.00
2023-05-14T00:57:51.824Z,97503.00
2023-05-14T01:00:21.055Z,97513.00
2023-05-14T01:02:49.397Z,97511.00
2023-05-14T01:05:17.903Z,97503.00
2023-05-14T01:07:58.991Z,97503.00
2023-05-14T01:10:43.153Z,97504.00
2023-05-14T01:13:25.064Z,97499.00
2023-05-14T01:15:57.107Z,97512.00
2023-05-14T01:18:27.004Z,97515.00
2023-05-14T01:20:55.898Z,97498.00
2023-05-14T01:23:25.415Z,97510.00
2023-05-14T01:25:53.562Z,97526.00
2023-05-14T01:28:32.504Z,97513.00
2023-05-14T01:31:08.952Z,97509.00
2023-05-14T01:33:38.628Z,97516.00
2023-05-14T01:36:07.665Z,97517.00
2023-05-14T01:38:38.212Z,97504.00
2023-05-14T01:41:07.128Z,97501.00
2023-05-14T01:43:36.505Z,97500.00
2023-05-14T01:46:04.970Z,97502.00
2023-05-14T01:48:33.261Z,97501.00
2023-05-14T01:51:02.259Z,97515.00
2023-05-14T01:53:30.551Z,97501.00
2023-05-14T01:56:00.144Z,97503.00
2023-05-14T01:58:28.294Z,97513.00
2023-05-14T02:00:56.390Z,97513.00
2023-05-14T02:03:24.570Z,97492.00
2023-05-14T02:05:52.739Z,97504.00
2023-05-14T02:08:21.195Z,97503.00
2023-05-14T02:10:49.709Z,97504.00
2023-05-14T02:13:19.247Z,97496.00
2023-05-14T02:15:47.503Z,97496.00
2023-05-14T02:18:15.863Z,97489.00
2023-05-14T02:20:44.166Z,97490.00
2023-05-14T02:23:12.339Z,97473.00
2023-05-14T02:25:40.563Z,97495.00
2023-05-14T02:28:09.114Z,97488.00
2023-05-14T02:30:38.600Z,97497.00
2023-05-14T02:33:06.979Z,97483.00
2023-05-14T02:35:35.165Z,97495.00
2023-05-14T02:38:03.551Z,97488.00
2023-05-14T02:40:31.678Z,97481.00
2023-05-14T02:42:59.791Z,97474.00
2023-05-14T02:45:28.018Z,97487.00
2023-05-14T02:47:57.603Z,97498.00
2023-05-14T02:50:25.998Z,97486.00
2023-05-14T02:52:54.355Z,97491.00
2023-05-14T02:55:22.913Z,97490.00
2023-05-14T02:57:52.663Z,97485.00
2023-05-14T03:00:21.635Z,97481.00
2023-05-14T03:02:50.476Z,97476.00
2023-05-14T03:05:20.664Z,97477.00
2023-05-14T03:07:48.977Z,97471.00
2023-05-14T03:10:17.258Z,97468.00
2023-05-14T03:12:45.435Z,97468.00
2023-05-14T03:15:13.724Z,97477.00
2023-05-14T03:17:42.010Z,97472.00
2023-05-14T03:20:11.673Z,97481.00
2023-05-14T03:22:41.497Z,97473.00
2023-05-14T03:25:10.739Z,97479.00
2023-05-14T03:27:38.929Z,97483.00
2023-05-14T03:30:09.094Z,97470.00
2023-05-14T03:32:38.399Z,97482.00
2023-05-14T03:35:08.139Z,97481.00
2023-05-14T03:37:36.335Z,97479.00
2023-05-14T03:40:08.085Z,97473.00
2023-05-14T03:42:37.893Z,97481.00
2023-05-14T03:45:07.898Z,97471.00
2023-05-14T03:47:36.220Z,97473.00
2023-05-14T03:50:04.713Z,97484.00
2023-05-14T03:52:32.813Z,97482.00
2023-05-14T03:55:00.997Z,97487.00
2023-05-14T03:57:30.494Z,97487.00
2023-05-14T03:59:58.645Z,97475.00
2023-05-14T04:02:26.954Z,97479.00
2023-05-14T04:04:56.949Z,97483.00
2023-05-14T04:07:25.115Z,97489.00
2023-05-14T04:09:54.831Z,97482.00
2023-05-14T04:12:23.100Z,97478.00
2023-05-14T04:14:52.650Z,97473.00
2023-05-14T04:17:20.824Z,97476.00
2023-05-14T04:19:49.939Z,97468.00
2023-05-14T04:22:18.090Z,97490.00
2023-05-14T04:24:46.208Z,97475.00
2023-05-14T04:27:20.922Z,97482.00
2023-05-14T04:29:49.184Z,97476.00
2023-05-14T04:32:18.727Z,97475.00
2023-05-14T04:34:47.787Z,97459.00
2023-05-14T04:37:15.893Z,97459.00
2023-05-14T04:39:44.095Z,97459.00
2023-05-14T04:42:12.512Z,97455.00
2023-05-14T04:44:40.618Z,97468.00
2023-05-14T04:47:08.716Z,97468.00
2023-05-14T04:49:38.151Z,97461.00
2023-05-14T04:52:07.403Z,97454.00
2023-05-14T04:54:35.602Z,97465.00
2023-05-14T04:57:03.807Z,97461.00
2023-05-14T04:59:32.034Z,97456.00
2023-05-14T05:02:00.179Z,97460.00
2023-05-14T05:04:28.862Z,97456.00
2023-05-14T05:06:58.362Z,97451.00
2023-05-14T05:09:26.513Z,97459.00
2023-05-14T05:11:54.594Z,97451.00
2023-05-14T05:14:22.836Z,97449.00
2023-05-14T05:16:51.955Z,97454.00
2023-05-14T05:19:26.500Z,97455.00
2023-05-14T05:22:02.948Z,97452.00
2023-05-14T05:24:31.165Z,97462.00
2023-05-14T05:26:59.435Z,97460.00
2023-05-14T05:29:27.704Z,97442.00
2023-05-14T05:31:55.925Z,97449.00
2023-05-14T05:34:24.263Z,97455.00
2023-05-14T05:36:52.611Z,97454.00
2023-05-14T05:39:22.117Z,97456.00
2023-05-14T05:41:50.347Z,97453.00
2023-05-14T05:44:18.695Z,97450.00
2023-05-14T05:46:46.862Z,97450.00
2023-05-14T05:49:16.797Z,97451.00
2023-05-14T05:51:44.925Z,97453.00
2023-05-14T05:54:13.124Z,97453.00
2023-05-14T05:56:42.838Z,97447.00
2023-05-14T05:59:10.921Z,97448.00
2023-05-14T06:01:40.652Z,97452.00
2023-05-14T06:04:08.822Z,97441.00
2023-05-14T06:06:37.013Z,97448.00
2023-05-14T06:09:06.830Z,97446.00
2023-05-14T06:11:35.094Z,97450.00
2023-05-14T06:14:04.650Z,97460.00
2023-05-14T06:16:32.991Z,97469.00
2023-05-14T06:19:01.376Z,97469.00
2023-05-14T06:21:29.653Z,97453.00
2023-05-14T06:23:57.747Z,97461.00
2023-05-14T06:26:26.288Z,97466.00
2023-05-14T06:28:54.392Z,97459.00
2023-05-14T06:31:23.938Z,97474.00
2023-05-14T06:33:52.229Z,97466.00
2023-05-14T06:36:20.438Z,97470.00
2023-05-14T06:38:48.533Z,97463.00
2023-05-14T06:41:18.112Z,97466.00
2023-05-14T06:43:46.241Z,97461.00
2023-05-14T06:46:14.388Z,97454.00
2023-05-14T06:48:43.986Z,97459.00
2023-05-14T06:51:13.216Z,97466.00
2023-05-14T06:53:42.046Z,97456.00
2023-05-14T06:56:10.286Z,97453.00
2023-05-14T06:58:38.381Z,97466.00
2023-05-14T07:01:06.829Z,97449.00
2023-05-14T07:03:35.151Z,97450.00
2023-05-14T07:06:04.890Z,97468.00
2023-05-14T07:08:33.046Z,97460.00
2023-05-14T07:11:01.247Z,97463.00
2023-05-14T07:13:29.438Z,97465.00
2023-05-14T07:15:57.624Z,97461.00
2023-05-14T07:18:25.926Z,97465.00
2023-05-14T07:20:54.094Z,97454.00
2023-05-14T07:23:23.626Z,97459.00
2023-05-14T07:25:51.803Z,97464.00
2023-05-14T07:28:20.051Z,97471.00
2023-05-14T07:30:48.316Z,97463.00
2023-05-14T07:33:16.494Z,97453.00
2023-05-14T07:35:44.750Z,97443.00
2023-05-14T07:38:12.978Z,97448.00
2023-05-14T07:40:42.549Z,97440.00
2023-05-14T07:43:11.542Z,97437.00
2023-05-14T07:45:40.230Z,97438.00
2023-05-14T07:48:08.601Z,97450.00
2023-05-14T07:50:37.622Z,97442.00
2023-05-14T07:53:05.746Z,97432.00
2023-05-14T07:55:33.901Z,97438.00
2023-05-14T07:58:03.494Z,97432.00
2023-05-14T08:00:31.926Z,97440.00
2023-05-14T08:03:00.289Z,97438.00
2023-05-14T08:05:28.626Z,97438.00
2023-05-14T08:07:56.925Z,97436.00
2023-05-14T08:10:25.604Z,97443.00
2023-05-14T08:12:54.159Z,97439.00
2023-05-14T08:15:26.353Z,97439.00
2023-05-14T08:17:55.932Z,97442.00
2023-05-14T08:20:24.793Z,97440.00
2023-05-14T08:22:53.050Z,97433.00
2023-05-14T08:25:21.247Z,97437.00
2023-05-14T08:27:49.367Z,97431.00
2023-05-14T08:30:17.990Z,97428.00
2023-05-14T08:32:47.511Z,97426.00
2023-05-14T08:35:16.036Z,97423.00
2023-05-14T08:37:44.840Z,97423.00
2023-05-14T08:40:14.245Z,97410.00
2023-05-14T08:42:44.740Z,97410.00
2023-05-14T08:45:19.996Z,97406.00
2023-05-14T08:47:51.800Z,97409.00
2023-05-14T08:50:23.074Z,97411.00
2023-05-14T08:52:52.587Z,97406.00
2023-05-14T08:55:21.983Z,97397.00
2023-05-14T08:57:50.725Z,97403.00
2023-05-14T09:00:19.434Z,97407.00
2023-05-14T09:02:50.308Z,97398.00
2023-05-14T09:05:20.538Z,97400.00
2023-05-14T09:07:48.671Z,97402.00
2023-05-14T09:10:18.084Z,97399.00
2023-05-14T09:12:46.261Z,97395.00
2023-05-14T09:15:14.667Z,97399.00
2023-05-14T09:17:42.972Z,97400.00
2023-05-14T09:20:14.177Z,97387.00
2023-05-14T09:22:43.107Z,97387.00
2023-05-14T09:25:12.952Z,97380.00
2023-05-14T09:27:41.308Z,97382.00
2023-05-14T09:30:11.832Z,97384.00
2023-05-14T09:32:43.880Z,97370.00
2023-05-14T09:35:20.653Z,97373.00
2023-05-14T09:37:51.646Z,97362.00
2023-05-14T09:40:21.580Z,97368.00
2023-05-14T09:42:50.475Z,97375.00
2023-05-14T09:45:19.053Z,97361.00
2023-05-14T09:47:47.410Z,97364.00
2023-05-14T09:50:17.025Z,97363.00
2023-05-14T09:52:46.448Z,97372.00
2023-05-14T09:55:16.042Z,97359.00
2023-05-14T09:57:45.003Z,97359.00
2023-05-14T10:00:16.070Z,97360.00
2023-05-14T10:02:48.026Z,97354.00
2023-05-14T10:05:19.072Z,97356.00
2023-05-14T10:07:50.459Z,97336.00
2023-05-14T10:10:22.226Z,97336.00
2023-05-14T10:12:58.068Z,97354.00
2023-05-14T10:15:34.624Z,97353.00
2023-05-14T10:18:11.212Z,97343.00
2023-05-14T10:20:42.642Z,97337.00
2023-05-14T10:23:11.034Z,97335.00
2023-05-14T10:25:40.322Z,97338.00
2023-05-14T10:28:08.694Z,97327.00
2023-05-14T10:30:36.879Z,97335.00
2023-05-14T10:33:10.272Z,97339.00
2023-05-14T10:36:05.194Z,97332.00
2023-05-14T10:38:35.624Z,97327.00
2023-05-14T10:41:05.868Z,97325.00
2023-05-14T10:43:39.205Z,97323.00
2023-05-14T10:46:09.386Z,97325.00
2023-05-14T10:48:40.355Z,97326.00
2023-05-14T10:51:12.017Z,97321.00
2023-05-14T10:53:42.225Z,97325.00
2023-05-14T10:56:12.626Z,97319.00
2023-05-14T10:58:43.914Z,97319.00
2023-05-14T11:01:14.279Z,97315.00
2023-05-14T11:03:46.577Z,97319.00
2023-05-14T11:06:17.107Z,97309.00
2023-05-14T11:08:46.446Z,97315.00
2023-05-14T11:11:15.347Z,97303.00
2023-05-14T11:13:45.647Z,97311.00
2023-05-14T11:18:53.914Z,97307.00
2023-05-14T11:21:23.452Z,97317.00
2023-05-14T11:23:51.610Z,97300.00
2023-05-14T11:26:21.616Z,97311.00
2023-05-14T11:28:50.837Z,97303.00
2023-05-14T11:31:19.197Z,97306.00
2023-05-14T11:33:47.733Z,97292.00
2023-05-14T11:36:15.970Z,97301.00
2023-05-14T11:38:53.722Z,97299.00
2023-05-14T11:41:23.168Z,97297.00
2023-05-14T11:43:51.733Z,97300.00
2023-05-14T11:46:20.247Z,97295.00
2023-05-14T11:48:49.020Z,97294.00
2023-05-14T11:51:17.279Z,97286.00
2023-05-14T11:53:47.632Z,97284.00
2023-05-14T11:56:17.278Z,97295.00
2023-05-14T11:58:49.914Z,97294.00
2023-05-14T12:01:18.045Z,97293.00
2023-05-14T12:03:46.463Z,97276.00
2023-05-14T12:06:14.964Z,97283.00
2023-05-14T12:08:43.166Z,97268.00
2023-05-14T12:11:11.398Z,97281.00
2023-05-14T12:13:41.298Z,97266.00
2023-05-14T12:16:09.766Z,97267.00
2023-05-14T12:18:38.662Z,97265.00
2023-05-14T12:21:08.858Z,97269.00
2023-05-14T12:23:40.131Z,97266.00
2023-05-14T12:26:09.972Z,97265.00
2023-05-14T12:28:48.556Z,97260.00
2023-05-14T12:31:17.059Z,97258.00
2023-05-14T12:33:45.378Z,97252.00
2023-05-14T12:38:48.490Z,97246.00
2023-05-14T12:41:17.311Z,97247.00
2023-05-14T12:43:49.797Z,97257.00
2023-05-14T12:46:18.036Z,97246.00
2023-05-14T12:48:46.618Z,97246.00
2023-05-14T12:51:14.818Z,97237.00
2023-05-14T12:53:43.025Z,97243.00
2023-05-14T12:56:11.517Z,97244.00
2023-05-14T12:58:39.743Z,97228.00
2023-05-14T13:01:09.389Z,97230.00
2023-05-14T13:03:37.585Z,97233.00
2023-05-14T13:06:06.193Z,97235.00
2023-05-14T13:08:34.505Z,97234.00
2023-05-14T13:11:02.589Z,97233.00
2023-05-14T13:13:30.741Z,97228.00
2023-05-14T13:15:58.922Z,97218.00
2023-05-14T13:18:28.415Z,97214.00
2023-05-14T13:20:56.635Z,97225.00
2023-05-14T13:23:25.192Z,97210.00
2023-05-14T13:25:53.467Z,97217.00
2023-05-14T13:28:21.610Z,97208.00
2023-05-14T13:31:07.834Z,97196.00
2023-05-14T13:33:41.179Z,97203.00
2023-05-14T13:36:10.732Z,97191.00
2023-05-14T13:38:39.279Z,97195.00
2023-05-14T13:41:07.678Z,97195.00
2023-05-14T13:43:37.027Z,97180.00
2023-05-14T13:46:06.940Z,97186.00
2023-05-14T13:48:35.919Z,97183.00
2023-05-14T13:51:05.557Z,97187.00
2023-05-14T13:53:33.770Z,97189.00
2023-05-14T13:56:02.045Z,97175.00
2023-05-14T13:58:30.398Z,97177.00
2023-05-14T14:00:58.722Z,97187.00
2023-05-14T14:03:26.878Z,97176.00
2023-05-14T14:05:55.409Z,97163.00
2023-05-14T14:08:24.987Z,97176.00
2023-05-14T14:10:55.181Z,97166.00
2023-05-14T14:13:24.250Z,97165.00
2023-05-14T14:15:52.557Z,97166.00
2023-05-14T14:18:20.795Z,97156.00
2023-05-14T14:20:49.276Z,97156.00
2023-05-14T14:23:17.520Z,97153.00
2023-05-14T14:25:47.043Z,97153.00
2023-05-14T14:28:15.269Z,97154.00
2023-05-14T14:30:44.168Z,97156.00
2023-05-14T14:33:12.476Z,97149.00
2023-05-14T14:35:40.889Z,97147.00
2023-05-14T14:38:09.370Z,97156.00
2023-05-14T14:40:37.544Z,97150.00
2023-05-14T14:43:07.129Z,97141.00
2023-05-14T14:45:35.368Z,97149.00
2023-05-14T14:48:38.541Z,97152.00
2023-05-14T14:51:08.497Z,97161.00
2023-05-14T14:53:37.866Z,97142.00
2023-05-14T14:56:07.291Z,97134.00
2023-05-14T14:58:37.002Z,97144.00
2023-05-14T15:01:05.685Z,97139.00
2023-05-14T15:03:34.300Z,97136.00
2023-05-14T15:06:02.629Z,97147.00
2023-05-14T15:08:30.732Z,97138.00
2023-05-14T15:10:59.347Z,97128.00
2023-05-14T15:13:28.258Z,97139.00
2023-05-14T15:15:57.860Z,97140.00
2023-05-14T15:18:26.334Z,97129.00
2023-05-14T15:20:54.596Z,97139.00
2023-05-14T15:23:22.740Z,97128.00
2023-05-14T15:25:50.902Z,97137.00
2023-05-14T15:28:19.197Z,97133.00
2023-05-14T15:30:49.231Z,97137.00
2023-05-14T15:33:19.580Z,97135.00
2023-05-14T15:35:47.877Z,97118.00
2023-05-14T15:38:16.061Z,97124.00
2023-05-14T15:40:44.217Z,97132.00
2023-05-14T15:43:12.496Z,97131.00
2023-05-14T15:45:40.847Z,97122.00
2023-05-14T15:48:09.071Z,97122.00
2023-05-14T15:50:39.455Z,97122.00
2023-05-14T15:53:07.731Z,97126.00
2023-05-14T15:55:36.001Z,97121.00
2023-05-14T15:58:04.669Z,97122.00
2023-05-14T16:00:32.923Z,97119.00
2023-05-14T16:03:01.234Z,97136.00
2023-05-14T16:05:30.447Z,97124.00
2023-05-14T16:08:00.489Z,97130.00
2023-05-14T16:10:28.623Z,97133.00
2023-05-14T16:12:56.816Z,97142.00
2023-05-14T16:15:25.051Z,97139.00
2023-05-14T16:17:53.224Z,97128.00
2023-05-14T16:20:21.514Z,97144.00
2023-05-14T16:22:49.780Z,97147.00
2023-05-14T16:25:19.567Z,97128.00
2023-05-14T16:27:47.839Z,97137.00
2023-05-14T16:30:16.248Z,97142.00
2023-05-14T16:32:48.435Z,97144.00
2023-05-14T16:35:17.295Z,97135.00
2023-05-14T16:37:45.841Z,97136.00
2023-05-14T16:40:16.070Z,97134.00
2023-05-14T16:42:48.488Z,97140.00
2023-05-14T16:45:17.752Z,97132.00
2023-05-14T16:47:46.153Z,97134.00
2023-05-14T16:50:14.367Z,97135.00
2023-05-14T16:52:42.644Z,97128.00
2023-05-14T16:55:11.350Z,97128.00
2023-05-14T16:57:39.499Z,97134.00
2023-05-14T17:00:13.379Z,97126.00
2023-05-14T17:02:41.783Z,97126.00
2023-05-14T17:05:10.975Z,97128.00
2023-05-14T17:07:39.518Z,97127.00
2023-05-14T17:10:09.081Z,97125.00
2023-05-14T17:12:37.364Z,97116.00
2023-05-14T17:15:07.196Z,97113.00
2023-05-14T17:17:36.760Z,97124.00
2023-05-14T17:20:06.560Z,97117.00
2023-05-14T17:22:34.890Z,97110.00
2023-05-14T17:25:03.303Z,97112.00
2023-05-14T17:27:33.243Z,97118.00
2023-05-14T17:30:01.462Z,97120.00
2023-05-14T17:32:31.075Z,97128.00
2023-05-14T17:35:00.832Z,97115.00
2023-05-14T17:37:29.002Z,97121.00
2023-05-14T17:39:57.260Z,97119.00
2023-05-14T17:42:25.440Z,97120.00
2023-05-14T17:44:53.705Z,97118.00
2023-05-14T17:47:22.670Z,97131.00
2023-05-14T17:49:51.814Z,97112.00
2023-05-14T17:52:21.365Z,97128.00
2023-05-14T17:54:49.648Z,97126.00
2023-05-14T17:57:18.060Z,97119.00
2023-05-14T17:59:46.188Z,97117.00
2023-05-14T18:02:14.476Z,97130.00
2023-05-14T18:04:42.599Z,97124.00
2023-05-14T18:07:10.907Z,97141.00
2023-05-14T18:09:40.558Z,97140.00
2023-05-14T18:12:09.946Z,97133.00
2023-05-14T18:14:38.144Z,97132.00
2023-05-14T18:17:06.960Z,97137.00
2023-05-14T18:19:35.141Z,97128.00
2023-05-14T18:22:03.454Z,97132.00
2023-05-14T18:24:31.631Z,97140.00
2023-05-14T18:27:01.478Z,97143.00
2023-05-14T18:29:29.572Z,97148.00
2023-05-14T18:31:58.227Z,97145.00
2023-05-14T18:34:26.436Z,97142.00
2023-05-14T18:36:54.669Z,97149.00
2023-05-14T18:39:22.853Z,97151.00
2023-05-14T18:41:51.144Z,97144.00
2023-05-14T18:44:20.700Z,97155.00
2023-05-14T18:46:49.194Z,97162.00
2023-05-14T18:49:18.669Z,97158.00
2023-05-14T18:51:48.251Z,97164.00
2023-05-14T18:54:16.784Z,97158.00
2023-05-14T18:56:47.470Z,97149.00
2023-05-14T18:59:15.992Z,97158.00
2023-05-14T19:01:45.803Z,97160.00
2023-05-14T19:04:14.026Z,97167.00
2023-05-14T19:06:42.500Z,97157.00
2023-05-14T19:09:11.240Z,97163.00
2023-05-14T19:11:39.515Z,97158.00
2023-05-14T19:14:11.585Z,97151.00
2023-05-14T19:16:39.924Z,97154.00
2023-05-14T19:19:09.905Z,97159.00
2023-05-14T19:21:38.152Z,97157.00
2023-05-14T19:24:07.263Z,97163.00
2023-05-14T19:26:36.698Z,97159.00
2023-05-14T19:29:04.969Z,97160.00
2023-05-14T19:31:33.173Z,97162.00
2023-05-14T19:34:01.450Z,97156.00
2023-05-14T19:36:32.570Z,97154.00
2023-05-14T19:39:00.844Z,97173.00
2023-05-14T19:41:29.306Z,97167.00
2023-05-14T19:43:57.527Z,97169.00
2023-05-14T19:46:26.002Z,97158.00
2023-05-14T19:48:54.564Z,97166.00
2023-05-14T19:51:22.733Z,97158.00
2023-05-14T19:53:52.373Z,97151.00
2023-05-14T19:56:21.503Z,97170.00
2023-05-14T19:58:49.698Z,97169.00
2023-05-14T20:01:18.857Z,97166.00
2023-05-14T20:03:47.130Z,97159.00
2023-05-14T20:06:15.611Z,97166.00
2023-05-14T20:08:45.126Z,97162.00
2023-05-14T20:11:15.616Z,97170.00
2023-05-14T20:13:43.938Z,97160.00
2023-05-14T20:16:13.536Z,97168.00
2023-05-14T20:18:42.060Z,97173.00
2023-05-14T20:21:10.315Z,97173.00
2023-05-14T20:23:38.747Z,97174.00
2023-05-14T20:26:06.991Z,97179.00
2023-05-14T20:28:36.625Z,97168.00
2023-05-14T20:31:04.800Z,97174.00
2023-05-14T20:33:33.040Z,97156.00
2023-05-14T20:36:03.505Z,97162.00
2023-05-14T20:38:32.718Z,97158.00
2023-05-14T20:41:00.826Z,97160.00
2023-05-14T20:43:29.075Z,97169.00
2023-05-14T20:46:00.417Z,97161.00
2023-05-14T20:48:28.636Z,97162.00
2023-05-14T20:50:56.832Z,97141.00
2023-05-14T20:53:25.650Z,97155.00
2023-05-14T20:55:53.775Z,97149.00
2023-05-14T20:58:22.017Z,97166.00
2023-05-14T21:00:50.163Z,97145.00
2023-05-14T21:03:19.887Z,97158.00
2023-05-14T21:05:48.141Z,97166.00
2023-05-14T21:08:17.133Z,97171.00
2023-05-14T21:10:45.298Z,97170.00
2023-05-14T21:13:13.586Z,97155.00
2023-05-14T21:15:41.981Z,97151.00
2023-05-14T21:18:10.187Z,97160.00
2023-05-14T21:20:39.878Z,97163.00
2023-05-14T21:23:08.173Z,97153.00
2023-05-14T21:25:36.308Z,97155.00
2023-05-14T21:28:04.407Z,97160.00
2023-05-14T21:30:32.557Z,97171.00
2023-05-14T21:33:00.683Z,97166.00
2023-05-14T21:35:28.915Z,97157.00
2023-05-14T21:37:58.567Z,97164.00
2023-05-14T21:40:26.719Z,97170.00
2023-05-14T21:42:54.927Z,97159.00
2023-05-14T21:45:23.709Z,97145.00
2023-05-14T21:47:52.140Z,97146.00
2023-05-14T21:50:20.546Z,97143.00
2023-05-14T21:52:48.813Z,97144.00
2023-05-14T21:55:18.683Z,97136.00
2023-05-14T21:57:46.889Z,97129.00
2023-05-14T22:00:23.055Z,97139.00
2023-05-14T22:02:52.703Z,97147.00
2023-05-14T22:05:21.106Z,97144.00
2023-05-14T22:07:50.037Z,97133.00
2023-05-14T22:10:19.923Z,97135.00
2023-05-14T22:12:48.040Z,97135.00
2023-05-14T22:15:16.331Z,97131.00
2023-05-14T22:17:44.521Z,97147.00
2023-05-14T22:20:12.984Z,97142.00
2023-05-14T22:22:41.274Z,97145.00
2023-05-14T22:25:10.711Z,97142.00
2023-05-14T22:27:40.379Z,97134.00
2023-05-14T22:30:09.890Z,97134.00
2023-05-14T22:32:38.086Z,97131.00
2023-05-14T22:35:06.745Z,97141.00
2023-05-14T22:37:35.017Z,97128.00
2023-05-14T22:40:05.090Z,97122.00
2023-05-14T22:42:33.266Z,97117.00
2023-05-14T22:45:03.074Z,97119.00
2023-05-14T22:47:31.371Z,97116.00
2023-05-14T22:49:59.511Z,97121.00
2023-05-14T22:52:27.723Z,97131.00
2023-05-14T22:54:55.978Z,97103.00
2023-05-14T22:57:24.047Z,97103.00
2023-05-14T22:59:52.166Z,97097.00
2023-05-14T23:02:21.837Z,97093.00
2023-05-14T23:04:50.071Z,97095.00
2023-05-14T23:07:18.260Z,97091.00
2023-05-14T23:09:46.407Z,97093.00
2023-05-14T23:12:14.578Z,97081.00
2023-05-14T23:14:42.762Z,97096.00
2023-05-14T23:17:11.020Z,97086.00
2023-05-14T23:19:41.354Z,97091.00
2023-05-14T23:22:09.856Z,97088.00
2023-05-14T23:24:38.048Z,97082.00
2023-05-14T23:27:06.718Z,97075.00
2023-05-14T23:29:34.934Z,97071.00
2023-05-14T23:32:03.253Z,97086.00
2023-05-14T23:34:31.384Z,97071.00
2023-05-14T23:37:00.906Z,97077.00
2023-05-14T23:39:29.092Z,97058.00
2023-05-14T23:41:57.209Z,97064.00
2023-05-14T23:44:25.470Z,97057.00
2023-05-14T23:46:53.607Z,97067.00
2023-05-14T23:49:21.965Z,97050.00
2023-05-14T23:51:50.085Z,97057.00
2023-05-14T23:54:19.634Z,97047.00
2023-05-14T23:56:47.858Z,97047.00
2023-05-14T23:59:16.236Z,97048.00
